Wentworth, New Hampshire
Current Conditions -  °F | °C
As of 10:15 PM on Monday 26 Jan 2015 (Local Time) from K1P1 Reporting Station
Overcast Overcast  
Wind Chill: 17°   Ceiling: 10000
Heat Index: 17°   Visibility: 10mi
Dew Point: -3°   Wind: 0mph
Humidity: 40%   Direction: NA
Pressure: 30.04"   Gusts: NA
Location:  43.87°N, 71.91°W
Report Text: K1P1 270315Z AUTO 00000KT 10SM OVC100 M08/M20 A3004 RMK AO2 T10831197
Loading
Personal Weather Stations






























Interactive Weather Map New forecast layout! Learn more

10-Day Weather Forecast

Advertisements
Track Severe Weather on mobile